createdAt,value
2022-09-15T00:01:14.354Z,95600.31
2022-09-15T00:06:16.896Z,95583.31
2022-09-15T00:11:20.568Z,95590.22
2022-09-15T00:16:25.968Z,95581.13
2022-09-15T00:21:30.510Z,95572.38
2022-09-15T00:26:33.257Z,95573.09
2022-09-15T00:31:37.191Z,95585.28
2022-09-15T00:36:39.745Z,95596.53
2022-09-15T00:41:42.490Z,95595.47
2022-09-15T00:47:09.387Z,95603.72
2022-09-15T00:52:14.897Z,95593.31
2022-09-15T00:57:19.733Z,95594.88
2022-09-15T01:02:25.460Z,95590.59
2022-09-15T01:07:29.752Z,95586.91
2022-09-15T01:12:32.368Z,95571.72
2022-09-15T01:17:41.500Z,95578.50
2022-09-15T01:22:51.644Z,95572.56
2022-09-15T01:28:16.012Z,95568.69
2022-09-15T01:33:26.713Z,95556.91
2022-09-15T01:38:34.654Z,95556.47
2022-09-15T01:43:48.735Z,95546.72
2022-09-15T01:48:54.957Z,95537.72
2022-09-15T01:53:59.282Z,95531.69
2022-09-15T01:59:01.835Z,95520.47
2022-09-15T02:04:10.302Z,95518.56
2022-09-15T02:09:14.474Z,95526.66
2022-09-15T02:14:18.342Z,95536.31
2022-09-15T02:19:31.669Z,95514.44
2022-09-15T02:24:37.835Z,95519.41
2022-09-15T02:29:41.142Z,95508.09
2022-09-15T02:34:47.304Z,95510.63
2022-09-15T02:39:52.711Z,95509.63
2022-09-15T02:44:55.345Z,95503.13
2022-09-15T02:49:59.288Z,95501.00
2022-09-15T02:55:01.805Z,95494.44
2022-09-15T03:00:14.461Z,95492.88
2022-09-15T03:05:19.396Z,95494.06
2022-09-15T03:10:22.456Z,95486.38
2022-09-15T03:15:25.884Z,95487.19
2022-09-15T03:20:30.313Z,95479.56
2022-09-15T03:25:33.229Z,95480.13
2022-09-15T03:30:35.771Z,95480.03
2022-09-15T03:35:39.700Z,95481.72
2022-09-15T03:40:43.214Z,95476.50
2022-09-15T03:45:45.785Z,95478.72
2022-09-15T03:50:50.014Z,95472.78
2022-09-15T03:55:52.583Z,95469.66
2022-09-15T04:00:55.246Z,95460.41
2022-09-15T04:05:59.189Z,95464.50
2022-09-15T04:11:05.694Z,95464.13
2022-09-15T04:16:09.765Z,95466.22
2022-09-15T04:21:14.265Z,95456.91
2022-09-15T04:26:20.093Z,95447.94
2022-09-15T04:31:22.729Z,95443.44
2022-09-15T04:36:28.288Z,95461.06
2022-09-15T04:41:31.060Z,95443.59
2022-09-15T04:46:33.725Z,95453.91
2022-09-15T04:51:37.670Z,95436.28
2022-09-15T04:56:40.898Z,95441.09
2022-09-15T05:01:44.022Z,95446.97
2022-09-15T05:06:47.993Z,95453.28
2022-09-15T05:11:50.547Z,95451.84
2022-09-15T05:16:53.124Z,95474.44
2022-09-15T05:21:57.026Z,95456.50
2022-09-15T05:26:59.573Z,95472.28
2022-09-15T05:32:02.210Z,95467.97
2022-09-15T05:37:06.491Z,95474.81
2022-09-15T05:42:09.342Z,95484.78
2022-09-15T05:47:11.862Z,95480.69
2022-09-15T05:52:15.782Z,95490.91
2022-09-15T05:57:18.341Z,95469.16
2022-09-15T06:02:21.082Z,95489.03
2022-09-15T06:07:25.025Z,95494.84
2022-09-15T06:12:28.013Z,95485.34
2022-09-15T06:17:32.648Z,95494.66
2022-09-15T06:22:36.581Z,95495.19
2022-09-15T06:27:39.126Z,95506.22
2022-09-15T06:32:44.191Z,95502.47
2022-09-15T06:37:51.437Z,95512.53
2022-09-15T06:42:56.524Z,95513.41
2022-09-15T06:48:23.011Z,95530.09
2022-09-15T06:53:23.499Z,95528.25
2022-09-15T06:58:26.040Z,95531.63
2022-09-15T07:03:28.691Z,95538.28
2022-09-15T07:08:33.077Z,95539.63
2022-09-15T07:13:35.756Z,95544.00
2022-09-15T07:18:42.807Z,95536.78
2022-09-15T07:23:47.844Z,95534.25
2022-09-15T07:28:51.414Z,95550.97
2022-09-15T07:33:54.160Z,95551.84
2022-09-15T07:38:58.496Z,95557.59
2022-09-15T07:44:01.429Z,95557.03
2022-09-15T07:49:04.682Z,95561.31
2022-09-15T07:54:08.607Z,95574.28
2022-09-15T07:59:11.339Z,95576.50
2022-09-15T08:04:13.878Z,95569.41
2022-09-15T08:09:17.811Z,95573.66
2022-09-15T08:14:20.370Z,95576.50
2022-09-15T08:19:22.927Z,95589.69
2022-09-15T08:24:26.895Z,95594.56
2022-09-15T08:29:29.438Z,95593.56
2022-09-15T08:34:32.020Z,95599.47
2022-09-15T08:39:35.934Z,95602.50
2022-09-15T08:44:44.371Z,95613.31
2022-09-15T08:49:54.757Z,95614.72
2022-09-15T08:54:59.501Z,95612.91
2022-09-15T09:00:02.210Z,95617.97
2022-09-15T09:05:07.871Z,95617.78
2022-09-15T09:10:16.446Z,95618.97
2022-09-15T09:15:25.397Z,95612.06
2022-09-15T09:20:33.399Z,95611.22
2022-09-15T09:25:37.426Z,95613.25
2022-09-15T09:30:41.434Z,95617.34
2022-09-15T09:35:45.422Z,95602.84
2022-09-15T09:40:50.722Z,95608.34
2022-09-15T09:45:53.332Z,95604.44
2022-09-15T09:50:56.027Z,95603.00
2022-09-15T09:56:13.427Z,95597.75
2022-09-15T10:01:18.085Z,95600.16
2022-09-15T10:06:22.180Z,95584.22
2022-09-15T10:11:39.485Z,95580.06
2022-09-15T10:16:44.389Z,95573.66
2022-09-15T10:21:46.950Z,95585.41
2022-09-15T10:26:49.544Z,95583.06
2022-09-15T10:31:53.678Z,95584.34
2022-09-15T10:37:02.985Z,95584.31
2022-09-15T10:42:10.089Z,95575.56
2022-09-15T10:47:19.544Z,95576.94
2022-09-15T10:52:27.970Z,95584.09
2022-09-15T10:57:42.134Z,95584.03
2022-09-15T11:03:02.069Z,95586.94
2022-09-15T11:08:14.103Z,95589.88
2022-09-15T11:13:20.566Z,95589.84
2022-09-15T11:18:44.917Z,95590.00
2022-09-15T11:23:50.385Z,95584.06
2022-09-15T11:28:55.883Z,95585.63
2022-09-15T11:34:02.898Z,95587.84
2022-09-15T11:39:08.796Z,95585.41
2022-09-15T11:44:17.545Z,95579.97
2022-09-15T11:49:23.391Z,95573.97
2022-09-15T11:54:31.574Z,95579.75
2022-09-15T11:59:39.869Z,95579.06
2022-09-15T12:04:46.402Z,95576.41
2022-09-15T12:09:49.874Z,95574.31
2022-09-15T12:14:53.450Z,95570.97
2022-09-15T12:20:01.269Z,95566.06
2022-09-15T12:25:04.961Z,95562.53
2022-09-15T12:30:28.090Z,95562.13
2022-09-15T12:35:33.215Z,95567.38
2022-09-15T12:40:36.972Z,95564.91
2022-09-15T12:45:40.538Z,95562.69
2022-09-15T12:50:53.164Z,95557.38
2022-09-15T12:55:57.492Z,95546.78
2022-09-15T13:01:18.214Z,95539.38
2022-09-15T13:06:23.094Z,95549.41
2022-09-15T13:11:34.662Z,95548.84
2022-09-15T13:16:44.147Z,95542.19
2022-09-15T13:21:50.512Z,95551.09
2022-09-15T13:26:55.779Z,95551.78
2022-09-15T13:32:02.070Z,95560.56
2022-09-15T13:42:53.379Z,95554.91
2022-09-15T13:48:05.949Z,95545.09
2022-09-15T13:53:24.216Z,95543.25
2022-09-15T14:03:53.160Z,95541.28
2022-09-15T14:08:57.270Z,95541.75
2022-09-15T14:14:01.677Z,95537.91
2022-09-15T14:19:23.092Z,95536.84
2022-09-15T14:24:27.887Z,95541.81
2022-09-15T14:29:31.861Z,95535.00
2022-09-15T14:34:37.175Z,95549.06
2022-09-15T14:39:40.426Z,95565.34
2022-09-15T14:50:07.431Z,95578.31
2022-09-15T14:55:13.660Z,95556.13
2022-09-15T15:00:20.467Z,95550.00
2022-09-15T15:05:25.752Z,95548.03
2022-09-15T15:10:35.656Z,95559.28
2022-09-15T15:15:40.360Z,95556.63
2022-09-15T15:20:49.809Z,95559.00
2022-09-15T15:25:52.756Z,95559.84
2022-09-15T15:31:06.434Z,95558.75
2022-09-15T15:36:09.878Z,95548.59
2022-09-15T15:41:19.951Z,95553.47
2022-09-15T15:46:37.349Z,95541.00
2022-09-15T15:51:41.592Z,95550.13
2022-09-15T15:56:44.366Z,95561.91
2022-09-15T16:01:48.490Z,95563.84
2022-09-15T16:06:52.836Z,95580.84
2022-09-15T16:17:03.329Z,95587.16
2022-09-15T16:22:07.298Z,95597.53
2022-09-15T16:27:14.806Z,95581.69
2022-09-15T16:32:18.823Z,95589.97
2022-09-15T16:37:22.817Z,95594.28
2022-09-15T16:42:25.376Z,95593.81
2022-09-15T16:47:27.931Z,95595.31
2022-09-15T16:52:31.830Z,95600.13
2022-09-15T16:57:34.370Z,95595.66
2022-09-15T17:02:36.919Z,95605.03
2022-09-15T17:07:40.816Z,95606.19
2022-09-15T17:12:43.629Z,95612.34
2022-09-15T17:17:46.206Z,95616.16
2022-09-15T17:22:50.789Z,95622.03
2022-09-15T17:27:53.612Z,95629.84
2022-09-15T17:33:02.734Z,95640.47
2022-09-15T17:38:07.342Z,95650.63
2022-09-15T17:43:13.760Z,95658.78
2022-09-15T17:48:16.421Z,95665.25
2022-09-15T17:53:22.606Z,95659.38
2022-09-15T17:58:26.647Z,95667.28
2022-09-15T18:03:30.791Z,95665.69
2022-09-15T18:08:36.079Z,95662.84
2022-09-15T18:13:38.730Z,95670.34
2022-09-15T18:18:41.344Z,95673.34
2022-09-15T18:23:45.261Z,95666.81
2022-09-15T18:28:47.789Z,95673.63
2022-09-15T18:33:50.317Z,95685.50
2022-09-15T18:38:54.262Z,95684.44
2022-09-15T18:43:56.796Z,95686.81
2022-09-15T18:48:59.325Z,95694.47
2022-09-15T18:54:03.801Z,95685.50
2022-09-15T18:59:06.407Z,95677.75
2022-09-15T19:04:08.961Z,95679.81
2022-09-15T19:09:12.875Z,95689.19
2022-09-15T19:14:15.430Z,95691.91
2022-09-15T19:19:18.006Z,95694.09
2022-09-15T19:24:21.921Z,95699.09
2022-09-15T19:29:24.505Z,95697.91
2022-09-15T19:34:27.129Z,95706.19
2022-09-15T19:39:31.453Z,95691.41
2022-09-15T19:44:34.251Z,95686.34
2022-09-15T19:49:37.154Z,95701.69
2022-09-15T19:54:41.186Z,95699.00
2022-09-15T19:59:44.699Z,95701.88
2022-09-15T20:04:48.586Z,95697.13
2022-09-15T20:09:53.184Z,95694.34
2022-09-15T20:14:55.746Z,95694.81
2022-09-15T20:19:58.290Z,95703.13
2022-09-15T20:25:02.227Z,95712.50
2022-09-15T20:30:05.525Z,95713.44
2022-09-15T20:35:08.235Z,95712.50
2022-09-15T20:40:12.223Z,95718.78
2022-09-15T20:45:15.396Z,95719.34
2022-09-15T20:50:17.961Z,95714.84
2022-09-15T20:55:21.882Z,95715.84
2022-09-15T21:00:24.917Z,95721.22
2022-09-15T21:05:27.473Z,95731.28
2022-09-15T21:10:31.430Z,95731.34
2022-09-15T21:15:34.552Z,95734.50
2022-09-15T21:20:37.094Z,95743.63
2022-09-15T21:25:41.014Z,95739.56
2022-09-15T21:30:43.555Z,95734.19
2022-09-15T21:35:47.410Z,95735.69
2022-09-15T21:40:51.329Z,95735.63
2022-09-15T21:45:55.852Z,95732.91
2022-09-15T21:50:58.453Z,95733.94
2022-09-15T21:56:03.408Z,95736.38
2022-09-15T22:01:13.023Z,95742.09
2022-09-15T22:06:16.046Z,95733.34
2022-09-15T22:11:20.084Z,95730.00
2022-09-15T22:16:23.889Z,95720.56
2022-09-15T22:21:27.276Z,95713.16
2022-09-15T22:26:32.339Z,95718.88
2022-09-15T22:31:35.229Z,95724.41
2022-09-15T22:36:37.825Z,95708.13
2022-09-15T22:41:41.753Z,95711.13
2022-09-15T22:46:44.318Z,95712.50
2022-09-15T22:51:46.869Z,95717.50
2022-09-15T22:56:50.808Z,95703.63
2022-09-15T23:01:53.406Z,95698.16
2022-09-15T23:06:56.019Z,95695.91
2022-09-15T23:12:00.048Z,95687.22
2022-09-15T23:17:02.621Z,95696.69
2022-09-15T23:22:05.195Z,95691.00
2022-09-15T23:27:09.116Z,95687.78
2022-09-15T23:32:11.680Z,95685.44
2022-09-15T23:37:14.306Z,95688.13
2022-09-15T23:42:19.060Z,95695.66
2022-09-15T23:47:21.779Z,95688.13
2022-09-15T23:52:24.333Z,95686.19
2022-09-15T23:57:28.252Z,95684.34
